Time;durP1;ratioP1;P1;durP2;ratioP2;P2;SDS_P1;SDS_P2;PMS_P1;PMS_P2;Temp;Humidity;BMP_temperature;BMP_pressure;BME280_temperature;BME280_humidity;BME280_pressure;Samples;Min_cycle;Max_cycle;Signal;HPM_P1;HPM_P2
2022/10/27 00:01:40;;;;;;;;;2.00;2.00;;;;;18.45;64.63;101258.00;4973971;28;45304;-60
2022/10/27 00:04:05;;;;;;;;;5.25;3.25;;;;;18.43;64.44;101256.28;4975331;28;45574;-60
2022/10/27 00:06:31;;;;;;;;;3.00;3.00;;;;;18.41;64.46;101252.09;4974965;28;46439;-60
2022/10/27 00:08:56;;;;;;;;;1.25;1.25;;;;;18.40;64.73;101258.72;4975399;28;45503;-60
2022/10/27 00:11:22;;;;;;;;;4.25;2.25;;;;;18.39;64.69;101255.13;4975223;28;45410;-60
2022/10/27 00:13:47;;;;;;;;;3.00;3.00;;;;;18.12;65.02;101222.44;4975540;28;45307;-60
2022/10/27 00:16:14;;;;;;;;;3.50;2.25;;;;;18.35;64.86;101269.78;4974622;28;46149;-60
2022/10/27 00:18:42;;;;;;;;;4.00;4.00;;;;;18.31;64.66;101271.38;4973670;28;45418;-59
2022/10/27 00:21:13;;;;;;;;;3.40;3.20;;;;;18.29;64.94;101275.25;4974955;28;45455;-60
2022/10/27 00:23:38;;;;;;;;;2.40;2.40;;;;;18.27;64.72;101271.88;4975385;28;45300;-60
2022/10/27 00:26:05;;;;;;;;;2.75;2.75;;;;;18.23;64.89;101270.69;4974483;28;45498;-59
2022/10/27 00:28:30;;;;;;;;;3.20;3.20;;;;;18.27;64.73;101274.66;4978274;28;45310;-60
2022/10/27 00:31:00;;;;;;;;;4.00;4.00;;;;;18.22;64.92;101266.22;4943613;28;45365;-60
2022/10/27 00:33:26;;;;;;;;;2.00;2.00;;;;;18.25;65.12;101270.44;4975927;28;45548;-60
2022/10/27 00:35:52;;;;;;;;;3.00;2.20;;;;;18.23;65.00;101267.91;4976185;28;46801;-61
2022/10/27 00:38:17;;;;;;;;;3.50;3.50;;;;;18.20;65.04;101262.03;4977023;28;45295;-60
2022/10/27 00:40:42;;;;;;;;;5.00;2.25;;;;;18.14;65.04;101253.59;4978262;28;45417;-60
2022/10/27 00:43:26;;;;;;;;;4.00;3.00;;;;;18.13;65.20;101270.50;4978223;28;45349;-60
2022/10/27 00:45:52;;;;;;;;;2.60;2.60;;;;;18.13;65.29;101265.78;4977727;28;46401;-60
2022/10/27 00:48:18;;;;;;;;;2.50;2.50;;;;;17.97;65.39;101228.53;4977568;28;45491;-60
2022/10/27 00:50:43;;;;;;;;;4.25;2.75;;;;;18.07;65.43;101252.91;4983291;28;45375;-60
2022/10/27 00:53:09;;;;;;;;;3.25;2.00;;;;;17.82;65.30;101211.63;4996333;28;45659;-60
2022/10/27 00:55:37;;;;;;;;;4.50;3.75;;;;;18.07;65.22;101254.84;4995848;28;46044;-60
2022/10/27 00:58:04;;;;;;;;;2.40;2.40;;;;;18.08;65.64;101262.09;4979621;28;45398;-60
2022/10/27 01:00:29;;;;;;;;;5.60;3.00;;;;;18.06;65.44;101261.47;4996085;28;45353;-60
2022/10/27 01:02:55;;;;;;;;;3.00;3.00;;;;;18.02;65.36;101250.00;4996168;28;45384;-60
2022/10/27 01:05:22;;;;;;;;;3.75;3.75;;;;;18.02;65.36;101250.84;4995905;28;45502;-60
2022/10/27 01:07:48;;;;;;;;;4.60;3.80;;;;;17.82;65.64;101222.72;4995371;28;45259;-60
2022/10/27 01:10:13;;;;;;;;;6.20;3.00;;;;;17.92;65.83;101250.66;4995907;28;45292;-60
2022/10/27 01:12:39;;;;;;;;;2.00;1.75;;;;;17.18;65.73;101131.06;4995772;28;45646;-60
2022/10/27 01:15:05;;;;;;;;;4.00;2.25;;;;;17.91;65.69;101253.66;4995374;28;45492;-60
2022/10/27 01:17:33;;;;;;;;;4.60;2.80;;;;;17.90;65.58;101252.84;4995671;28;45373;-60
2022/10/27 01:20:31;;;;;;;;;3.20;2.00;;;;;17.89;65.58;101245.63;4997295;28;45436;-60
2022/10/27 01:23:17;;;;;;;;;2.00;1.60;;;;;17.85;65.92;101255.53;4984586;28;45582;-60
2022/10/27 01:26:06;;;;;;;;;2.00;2.00;;;;;17.63;65.68;101206.25;4996454;28;46417;-60
2022/10/27 01:28:43;;;;;;;;;2.20;2.20;;;;;17.74;65.64;101223.94;4995734;28;45365;-60
2022/10/27 01:31:13;;;;;;;;;2.80;2.20;;;;;17.79;65.80;101242.63;4995670;28;45501;-60
2022/10/27 01:33:50;;;;;;;;;2.00;2.00;;;;;17.78;65.73;101235.41;4979613;28;45437;-60
2022/10/27 01:36:22;;;;;;;;;2.20;2.20;;;;;17.71;65.84;101222.50;4996782;28;46102;-60
2022/10/27 01:38:55;;;;;;;;;2.80;2.60;;;;;17.66;65.80;101224.34;4977151;28;45648;-60
2022/10/27 01:41:33;;;;;;;;;3.00;3.00;;;;;17.44;66.10;101203.69;4979698;28;45382;-60
2022/10/27 01:44:03;;;;;;;;;2.00;2.00;;;;;17.65;66.14;101242.09;4979466;28;45248;-60
2022/10/27 01:46:28;;;;;;;;;3.00;3.00;;;;;17.64;66.07;101238.47;4996255;28;45503;-60
2022/10/27 01:48:54;;;;;;;;;3.75;1.75;;;;;17.62;66.37;101237.88;4995093;28;45925;-60
2022/10/27 01:51:19;;;;;;;;;0.75;0.00;;;;;17.57;66.18;101235.00;4996620;28;45382;-60
2022/10/27 01:53:46;;;;;;;;;4.25;2.25;;;;;17.55;66.02;101231.66;4994495;28;45346;-60
2022/10/27 01:56:21;;;;;;;;;1.80;1.80;;;;;17.51;66.40;101236.00;4994894;28;45794;-60
2022/10/27 01:59:11;;;;;;;;;3.00;3.00;;;;;17.53;66.40;101240.22;4994678;28;45679;-60
2022/10/27 02:01:55;;;;;;;;;3.80;3.00;;;;;17.24;66.45;101203.28;4995268;28;45353;-60
2022/10/27 02:04:44;;;;;;;;;2.60;2.60;;;;;17.46;66.46;101232.00;4995234;28;45515;-60
2022/10/27 02:07:30;;;;;;;;;2.00;2.00;;;;;17.42;66.52;101229.97;4954975;28;46357;-60
2022/10/27 02:10:00;;;;;;;;;3.00;3.00;;;;;16.99;66.36;101160.00;4976491;28;45465;-60
2022/10/27 02:12:33;;;;;;;;;1.00;1.00;;;;;17.39;66.57;101222.16;4958774;28;45350;-60
2022/10/27 02:15:00;;;;;;;;;3.00;3.00;;;;;17.40;66.33;101221.91;4958865;28;45478;-60
2022/10/27 02:17:28;;;;;;;;;3.40;3.00;;;;;17.35;66.24;101221.81;4958349;28;45488;-60
2022/10/27 02:19:53;;;;;;;;;2.00;2.00;;;;;17.35;66.24;101207.94;4959456;28;46023;-60
2022/10/27 02:22:20;;;;;;;;;3.50;3.50;;;;;17.41;66.40;101208.88;4976024;28;45379;-60
2022/10/27 02:24:46;;;;;;;;;3.00;2.40;;;;;17.45;66.15;101213.69;4974974;28;45354;-60
2022/10/27 02:27:19;;;;;;;;;4.25;2.75;;;;;17.44;65.86;101217.56;4974354;28;46007;-59
2022/10/27 02:29:46;;;;;;;;;3.00;2.60;;;;;17.39;66.08;101206.34;4974385;28;45436;-60
2022/10/27 02:32:14;;;;;;;;;3.00;3.00;;;;;17.39;66.15;101203.56;4958162;28;45424;-60
2022/10/27 02:34:40;;;;;;;;;2.40;2.40;;;;;17.37;66.25;101197.44;4975453;28;45521;-60
2022/10/27 02:37:06;;;;;;;;;3.00;3.00;;;;;17.32;66.15;101202.88;4975657;28;46796;-60
2022/10/27 02:39:31;;;;;;;;;5.00;3.00;;;;;17.36;65.97;101195.75;4958603;28;45530;-60
2022/10/27 02:41:57;;;;;;;;;4.25;4.25;;;;;17.37;65.79;101199.34;4976514;28;45350;-60
2022/10/27 02:44:22;;;;;;;;;3.00;3.00;;;;;17.23;65.92;101180.22;4976177;28;45398;-60
2022/10/27 02:46:48;;;;;;;;;2.00;2.00;;;;;17.30;65.96;101194.78;4975745;28;45907;-60
2022/10/27 02:49:13;;;;;;;;;2.75;2.75;;;;;17.11;66.17;101160.84;4975443;28;45501;-60
2022/10/27 02:51:39;;;;;;;;;4.00;2.00;;;;;16.78;66.05;101126.31;4981286;28;45535;-60
2022/10/27 02:54:05;;;;;;;;;3.50;3.50;;;;;17.02;65.89;101167.88;4995494;28;45329;-60
2022/10/27 02:56:30;;;;;;;;;3.00;3.00;;;;;17.18;66.29;101203.16;5027045;28;47498;-60
2022/10/27 02:58:55;;;;;;;;;4.25;3.25;;;;;17.12;66.15;101186.66;4995462;28;45285;-60
2022/10/27 03:01:21;;;;;;;;;2.50;1.75;;;;;16.88;66.13;101159.81;5010248;28;45334;-60
2022/10/27 03:03:46;;;;;;;;;5.00;3.00;;;;;17.10;66.21;101203.56;4995448;28;45633;-60
2022/10/27 03:06:12;;;;;;;;;2.00;2.00;;;;;17.10;66.50;101197.16;5010570;28;48985;-60
2022/10/27 03:08:37;;;;;;;;;5.00;4.00;;;;;17.07;66.38;101199.34;4995149;28;45375;-59
2022/10/27 03:11:03;;;;;;;;;3.00;2.00;;;;;17.09;66.26;101207.41;4995478;28;45373;-59
2022/10/27 03:13:28;;;;;;;;;3.25;3.25;;;;;17.06;66.52;101203.19;4995265;28;45571;-59
2022/10/27 03:15:54;;;;;;;;;4.00;3.00;;;;;17.02;66.31;101199.22;4995249;28;45324;-59
2022/10/27 03:18:19;;;;;;;;;2.75;2.00;;;;;16.25;66.37;101076.41;5026820;28;45403;-59
2022/10/27 03:20:45;;;;;;;;;2.75;2.75;;;;;16.92;66.61;101182.34;5010288;28;45351;-59
2022/10/27 03:23:11;;;;;;;;;3.00;3.00;;;;;16.93;66.65;101187.63;4995456;28;45580;-59
2022/10/27 03:25:42;;;;;;;;;3.75;2.00;;;;;16.76;66.71;101167.31;4994520;28;46216;-59
2022/10/27 03:28:07;;;;;;;;;2.60;2.60;;;;;16.94;66.49;101192.09;4995044;28;45387;-59
2022/10/27 03:30:33;;;;;;;;;3.00;3.00;;;;;16.66;66.36;101157.66;4995336;28;45281;-59
2022/10/27 03:33:00;;;;;;;;;4.00;3.00;;;;;16.68;66.33;101154.66;4994990;28;45164;-59
2022/10/27 03:35:25;;;;;;;;;1.60;1.00;;;;;16.66;66.58;101156.84;4994299;28;47854;-59
2022/10/27 03:37:56;;;;;;;;;3.00;3.00;;;;;16.97;66.34;101198.25;4994697;28;45263;-59
2022/10/27 03:40:22;;;;;;;;;3.00;3.00;;;;;16.82;66.38;101182.97;4994617;28;45467;-59
2022/10/27 03:42:48;;;;;;;;;4.00;4.00;;;;;16.91;66.39;101198.13;4994714;28;45325;-59
2022/10/27 03:45:13;;;;;;;;;2.00;2.00;;;;;16.68;66.58;101160.19;4994656;28;46386;-60
2022/10/27 03:47:39;;;;;;;;;4.00;3.00;;;;;16.91;66.43;101198.13;4994576;28;45343;-61
2022/10/27 03:50:05;;;;;;;;;5.00;3.00;;;;;16.94;66.40;101200.44;5026402;28;45684;-59
2022/10/27 03:52:30;;;;;;;;;2.50;2.50;;;;;16.98;66.12;101194.38;4982824;28;45435;-60
2022/10/27 03:54:56;;;;;;;;;2.75;2.75;;;;;16.77;66.04;101152.34;4974642;28;46178;-60
2022/10/27 03:57:21;;;;;;;;;3.50;3.50;;;;;16.88;66.15;101170.91;4973838;28;45240;-60
2022/10/27 03:59:47;;;;;;;;;1.25;1.25;;;;;16.90;66.15;101182.59;4974600;28;45458;-59
2022/10/27 04:02:12;;;;;;;;;3.25;2.75;;;;;16.97;66.32;101195.47;4976764;28;45573;-60
2022/10/27 04:04:38;;;;;;;;;6.75;4.00;;;;;16.98;66.15;101189.69;4978212;28;45402;-60
2022/10/27 04:07:03;;;;;;;;;6.75;3.50;;;;;16.97;66.34;101201.84;4978039;28;45390;-59
2022/10/27 04:09:29;;;;;;;;;4.00;2.75;;;;;16.93;66.09;101190.41;4973459;28;45446;-60
2022/10/27 04:11:54;;;;;;;;;5.50;3.75;;;;;16.93;66.00;101195.94;4980936;28;46106;-59
2022/10/27 04:14:20;;;;;;;;;3.00;3.00;;;;;16.92;66.07;101196.22;4997761;28;45369;-60
2022/10/27 04:16:50;;;;;;;;;4.25;3.25;;;;;16.93;66.13;101198.72;4997561;28;45415;-60
2022/10/27 04:19:19;;;;;;;;;5.60;4.40;;;;;16.91;66.25;101198.13;4997789;28;45318;-59
2022/10/27 04:21:44;;;;;;;;;3.60;3.00;;;;;16.91;65.98;101206.44;4996427;28;45374;-60
2022/10/27 04:24:10;;;;;;;;;3.00;3.00;;;;;16.93;65.99;101200.66;4995959;28;45488;-61
2022/10/27 04:26:36;;;;;;;;;2.50;2.25;;;;;16.91;65.90;101197.28;4996351;28;45342;-60
2022/10/27 04:29:01;;;;;;;;;3.25;3.25;;;;;16.56;66.17;101146.38;4997639;28;45328;-60
2022/10/27 04:31:27;;;;;;;;;3.25;2.00;;;;;16.88;66.05;101197.78;4997868;28;45327;-60
2022/10/27 04:33:52;;;;;;;;;4.50;3.00;;;;;16.84;66.17;101191.88;4997245;28;46055;-60
2022/10/27 04:36:18;;;;;;;;;3.50;3.50;;;;;16.80;66.13;101179.56;4997578;28;45634;-60
2022/10/27 04:38:43;;;;;;;;;3.50;3.00;;;;;16.82;65.96;101180.19;4997189;28;45273;-61
2022/10/27 04:41:09;;;;;;;;;7.25;3.25;;;;;16.87;66.17;101179.47;4996367;28;45257;-60
2022/10/27 04:43:34;;;;;;;;;4.00;4.00;;;;;16.87;66.10;101171.13;5029130;28;45532;-60
2022/10/27 04:46:00;;;;;;;;;2.50;2.50;;;;;16.86;66.09;101178.59;4997420;28;45233;-60
2022/10/27 04:48:25;;;;;;;;;4.00;4.00;;;;;16.87;66.00;101176.69;5028720;28;45453;-60
2022/10/27 04:50:51;;;;;;;;;2.00;2.00;;;;;16.67;65.92;101137.16;4997671;28;45322;-61
2022/10/27 04:53:16;;;;;;;;;4.25;4.25;;;;;16.89;65.95;101175.34;4996763;28;45433;-61
2022/10/27 04:55:42;;;;;;;;;4.00;3.00;;;;;16.83;66.22;101178.25;4997065;28;45448;-61
2022/10/27 04:58:07;;;;;;;;;5.25;3.50;;;;;16.79;66.00;101186.22;4997134;28;45345;-61
2022/10/27 05:00:33;;;;;;;;;1.75;1.75;;;;;16.77;66.12;101180.91;4997349;28;45404;-61
2022/10/27 05:02:58;;;;;;;;;3.50;3.50;;;;;16.78;66.55;101178.97;4995491;28;46988;-59
2022/10/27 05:05:25;;;;;;;;;4.00;4.00;;;;;16.75;66.27;101185.84;4996766;28;45342;-61
2022/10/27 05:07:54;;;;;;;;;6.00;4.60;;;;;16.72;66.58;101189.13;4997305;28;45157;-61
2022/10/27 05:10:20;;;;;;;;;2.40;2.40;;;;;16.70;66.32;101187.69;4995990;28;45575;-61
2022/10/27 05:12:45;;;;;;;;;3.25;3.25;;;;;16.66;66.60;101184.53;4996380;28;46007;-62
2022/10/27 05:15:11;;;;;;;;;7.00;5.50;;;;;16.71;66.52;101170.78;4996736;28;45309;-61
2022/10/27 05:17:37;;;;;;;;;5.75;5.75;;;;;16.68;66.36;101171.28;4997239;28;45382;-61
2022/10/27 05:20:02;;;;;;;;;4.60;3.00;;;;;16.47;66.46;101134.81;4996899;28;45397;-61
2022/10/27 05:22:28;;;;;;;;;5.00;5.00;;;;;16.63;66.50;101162.84;4995234;28;45723;-61
2022/10/27 05:24:53;;;;;;;;;5.00;5.00;;;;;16.66;66.63;101163.19;4996662;28;45464;-61
2022/10/27 05:27:19;;;;;;;;;4.25;4.25;;;;;16.62;66.56;101155.63;4996851;28;45961;-61
2022/10/27 05:29:44;;;;;;;;;5.00;3.75;;;;;16.62;66.53;101159.25;4995356;28;45440;-60
2022/10/27 05:32:10;;;;;;;;;5.25;3.25;;;;;16.46;66.52;101141.44;4996596;28;46253;-60
2022/10/27 05:34:35;;;;;;;;;6.50;5.50;;;;;16.62;66.61;101162.03;4996393;28;45275;-60
2022/10/27 05:37:01;;;;;;;;;5.75;5.00;;;;;16.62;66.60;101161.16;4996976;28;45354;-60
2022/10/27 05:39:26;;;;;;;;;3.00;2.50;;;;;16.62;66.78;101173.09;4996670;28;45339;-60
2022/10/27 05:41:52;;;;;;;;;6.50;5.25;;;;;16.59;66.69;101156.13;4995285;28;47234;-60
2022/10/27 05:44:17;;;;;;;;;6.25;5.00;;;;;16.59;66.50;101156.94;4996418;28;45341;-62
2022/10/27 05:46:43;;;;;;;;;4.75;4.00;;;;;16.60;66.76;101155.84;4996418;28;45287;-60
2022/10/27 05:49:08;;;;;;;;;3.75;3.50;;;;;16.37;66.62;101116.03;4996854;28;45350;-58
2022/10/27 05:51:34;;;;;;;;;5.00;5.00;;;;;16.62;66.42;101155.63;4996226;28;45341;-60
2022/10/27 05:53:59;;;;;;;;;5.50;4.50;;;;;16.37;66.84;101115.16;5028198;28;45272;-60
2022/10/27 05:56:25;;;;;;;;;5.00;5.00;;;;;16.59;67.04;101148.63;4996113;28;45284;-61
2022/10/27 05:58:50;;;;;;;;;7.50;5.75;;;;;16.63;66.89;101146.22;4996614;28;45268;-60
2022/10/27 06:01:16;;;;;;;;;4.75;4.50;;;;;16.70;66.59;101151.66;4996370;28;45819;-60
2022/10/27 06:03:41;;;;;;;;;4.00;4.00;;;;;16.71;66.48;101134.75;5010969;28;45372;-61
2022/10/27 06:06:07;;;;;;;;;3.00;3.00;;;;;16.74;66.45;101138.97;4996584;28;45418;-60
2022/10/27 06:08:32;;;;;;;;;5.75;5.25;;;;;16.77;66.40;101136.56;4996357;28;45829;-60
2022/10/27 06:10:58;;;;;;;;;6.00;5.75;;;;;16.78;66.33;101138.25;4996021;28;46218;-61
2022/10/27 06:13:23;;;;;;;;;4.50;4.50;;;;;16.79;66.26;101137.16;4995773;28;45489;-60
2022/10/27 06:15:49;;;;;;;;;4.50;4.50;;;;;16.74;66.28;101139.81;4996071;28;45332;-60
2022/10/27 06:18:15;;;;;;;;;6.00;4.00;;;;;16.31;66.46;101069.91;4996444;28;45378;-61
2022/10/27 06:20:41;;;;;;;;;5.00;5.00;;;;;16.80;66.15;101143.53;4947332;28;45556;-59
2022/10/27 06:23:06;;;;;;;;;7.80;6.00;;;;;16.75;66.36;101141.50;4974845;28;45398;-61
2022/10/27 06:25:32;;;;;;;;;7.00;5.75;;;;;16.68;66.61;101121.41;4975425;28;45274;-60
2022/10/27 06:27:57;;;;;;;;;5.75;5.75;;;;;16.76;66.66;101125.72;4976524;28;45355;-60
2022/10/27 06:30:23;;;;;;;;;5.00;3.50;;;;;16.60;66.30;101086.59;4975848;28;45431;-60
2022/10/27 06:32:48;;;;;;;;;5.25;3.00;;;;;16.58;66.51;101085.13;4975692;28;45373;-60
2022/10/27 06:35:14;;;;;;;;;5.00;2.75;;;;;16.63;66.51;101097.19;4976146;28;45357;-59
2022/10/27 06:37:39;;;;;;;;;5.75;4.00;;;;;16.77;66.37;101117.16;4976468;28;45280;-59
2022/10/27 06:40:08;;;;;;;;;5.25;5.25;;;;;16.58;65.84;101090.69;4975547;28;45649;-61
2022/10/27 06:42:35;;;;;;;;;5.20;3.80;;;;;16.57;66.44;101087.09;4974618;28;45465;-62
2022/10/27 06:45:01;;;;;;;;;7.80;4.40;;;;;16.81;66.33;101120.28;4975775;28;45352;-62
2022/10/27 06:47:27;;;;;;;;;7.00;5.50;;;;;16.80;66.48;101115.81;4976195;28;45153;-60
2022/10/27 06:49:52;;;;;;;;;5.00;5.00;;;;;16.21;66.10;101023.44;4975259;28;46037;-62
2022/10/27 06:52:18;;;;;;;;;6.50;5.50;;;;;16.67;66.23;101115.00;4978401;28;45393;-59
2022/10/27 06:54:43;;;;;;;;;5.50;4.50;;;;;16.71;66.29;101117.31;4993743;28;45358;-62
2022/10/27 06:57:09;;;;;;;;;6.00;5.00;;;;;16.59;66.56;101103.47;4995886;28;45520;-62
2022/10/27 06:59:34;;;;;;;;;5.00;5.00;;;;;16.45;66.62;101081.56;4994091;28;45350;-60
2022/10/27 07:02:01;;;;;;;;;9.50;7.50;;;;;16.69;66.67;101127.78;4995363;28;45335;-60
2022/10/27 07:04:26;;;;;;;;;8.00;5.20;;;;;16.71;66.71;101122.84;4994032;28;45352;-61
2022/10/27 07:06:52;;;;;;;;;7.00;7.00;;;;;16.67;66.64;101131.63;5010746;28;45278;-60
2022/10/27 07:09:17;;;;;;;;;8.75;5.75;;;;;16.61;66.90;101143.72;4995181;28;45539;-61
2022/10/27 07:11:43;;;;;;;;;7.00;5.00;;;;;16.64;66.79;101153.44;4995159;28;45355;-62
2022/10/27 07:14:08;;;;;;;;;8.50;7.50;;;;;16.67;66.89;101158.50;4994830;28;45458;-62
2022/10/27 07:16:34;;;;;;;;;7.00;5.25;;;;;16.75;66.55;101160.09;4989237;28;45528;-59
2022/10/27 07:18:59;;;;;;;;;5.00;5.00;;;;;16.84;66.54;101147.53;4992062;28;45758;-59
2022/10/27 07:21:26;;;;;;;;;6.25;6.25;;;;;16.78;66.24;101154.91;4993713;28;45513;-66
2022/10/27 07:23:52;;;;;;;;;8.20;6.00;;;;;16.72;66.71;101155.88;4979630;28;45662;-57
2022/10/27 07:26:24;;;;;;;;;6.75;6.00;;;;;16.76;66.74;101161.75;4962824;28;45534;-60
2022/10/27 07:28:50;;;;;;;;;5.60;5.20;;;;;16.77;66.60;101175.34;4987085;28;45840;-60
2022/10/27 07:31:15;;;;;;;;;6.50;5.00;;;;;16.86;66.43;101186.09;4973713;28;46002;-61
2022/10/27 07:33:41;;;;;;;;;6.75;4.00;;;;;16.80;66.42;101185.13;5020674;28;45400;-61
2022/10/27 07:36:06;;;;;;;;;7.25;6.25;;;;;16.92;66.30;101213.66;4987131;28;45738;-61
2022/10/27 07:38:32;;;;;;;;;8.75;6.00;;;;;16.92;66.05;101185.94;4990580;28;46003;-61
2022/10/27 07:40:57;;;;;;;;;7.25;6.00;;;;;17.03;65.96;101187.03;4991039;28;45477;-59
2022/10/27 07:43:23;;;;;;;;;7.75;5.50;;;;;16.74;65.84;101152.81;5024543;28;45391;-58
2022/10/27 07:45:49;;;;;;;;;5.00;5.00;;;;;17.01;66.14;101203.06;4994380;28;45412;-64
2022/10/27 07:48:15;;;;;;;;;8.50;7.25;;;;;17.01;66.33;101197.50;4993824;28;46156;-60
2022/10/27 07:50:41;;;;;;;;;7.80;6.20;;;;;16.96;65.85;101179.94;4991363;28;45623;-61
2022/10/27 07:53:07;;;;;;;;;5.40;4.00;;;;;17.07;66.01;101209.56;5016243;28;45525;-63
2022/10/27 07:55:34;;;;;;;;;6.50;6.50;;;;;17.10;66.07;101197.16;4974596;28;45427;-63
2022/10/27 07:58:13;;;;;;;;;10.00;7.60;;;;;17.09;66.16;101193.56;4993655;28;46314;-63
2022/10/27 08:00:40;;;;;;;;;6.00;6.00;;;;;16.97;66.28;101170.50;5025081;28;46585;-63
2022/10/27 08:03:06;;;;;;;;;7.00;5.80;;;;;17.06;66.18;101192.09;4992989;28;45468;-62
2022/10/27 08:05:33;;;;;;;;;8.40;7.00;;;;;17.05;66.23;101186.78;4993802;28;45390;-65
2022/10/27 08:07:59;;;;;;;;;7.00;7.00;;;;;17.06;66.46;101188.47;4993710;28;46052;-68
2022/10/27 08:10:25;;;;;;;;;7.40;7.00;;;;;16.88;66.30;101158.97;5008282;28;45439;-65
2022/10/27 08:12:51;;;;;;;;;8.25;5.75;;;;;17.10;66.26;101188.81;4993610;28;45436;-64
2022/10/27 08:15:16;;;;;;;;;8.00;8.00;;;;;17.19;66.14;101196.53;4986314;28;45488;-66
2022/10/27 08:17:42;;;;;;;;;8.50;5.75;;;;;17.17;66.16;101193.16;4991855;28;46540;-63
2022/10/27 08:20:08;;;;;;;;;7.00;7.00;;;;;17.15;66.50;101184.25;4991862;28;45489;-66
2022/10/27 08:22:34;;;;;;;;;11.80;9.40;;;;;17.23;66.24;101196.88;4973846;28;45425;-63
2022/10/27 08:24:59;;;;;;;;;8.75;6.75;;;;;17.07;66.12;101176.28;4969213;28;45897;-64
2022/10/27 08:27:25;;;;;;;;;13.25;9.75;;;;;17.22;66.31;101191.59;4974753;28;45437;-62
2022/10/27 08:29:50;;;;;;;;;8.50;8.00;;;;;17.11;66.09;101168.31;4954801;28;45654;-62
2022/10/27 08:32:16;;;;;;;;;9.25;9.25;;;;;17.33;66.22;101210.09;4971017;28;45936;-65
2022/10/27 08:34:41;;;;;;;;;8.25;6.75;;;;;17.32;66.21;101200.09;4987130;28;45716;-70
2022/10/27 08:37:07;;;;;;;;;8.75;8.00;;;;;17.34;65.91;101209.88;4991682;28;46216;-65
2022/10/27 08:39:32;;;;;;;;;10.50;8.50;;;;;17.36;66.09;101217.09;4992385;28;45882;-68
2022/10/27 08:42:30;;;;;;;;;13.00;10.75;;;;;17.37;66.57;101216.84;5007158;28;45860;-68
2022/10/27 08:44:59;;;;;;;;;12.60;11.60;;;;;17.44;65.98;101202.81;4992351;28;45378;-65
2022/10/27 08:47:25;;;;;;;;;10.60;8.00;;;;;17.28;66.11;101173.97;4990432;28;45514;-67
2022/10/27 08:49:54;;;;;;;;;9.25;9.00;;;;;17.20;66.02;101164.91;4991456;28;45816;-66
2022/10/27 08:52:30;;;;;;;;;12.80;11.40;;;;;17.44;66.08;101212.00;5006486;28;45534;-67
2022/10/27 08:55:02;;;;;;;;;10.80;10.80;;;;;17.39;66.19;101208.28;4971975;28;45529;-62
2022/10/27 08:57:30;;;;;;;;;8.60;7.20;;;;;17.45;65.95;101213.69;4956049;28;45586;-67
2022/10/27 08:59:56;;;;;;;;;8.80;8.80;;;;;17.45;65.94;101212.88;4971293;28;45422;-69
2022/10/27 09:02:34;;;;;;;;;11.75;11.75;;;;;17.39;66.08;101183.31;4938745;28;45622;-65
2022/10/27 09:05:33;;;;;;;;;9.80;9.80;;;;;17.62;66.07;101218.47;4972907;28;45613;-64
2022/10/27 09:08:07;;;;;;;;;8.80;8.00;;;;;17.72;65.64;101212.25;4971699;28;46618;-66
2022/10/27 09:10:42;;;;;;;;;9.20;8.80;;;;;17.78;65.33;101232.63;4955759;28;45608;-66
2022/10/27 09:13:07;;;;;;;;;14.00;9.60;;;;;17.84;65.36;101223.31;4973061;28;45478;-68
2022/10/27 09:15:51;;;;;;;;;8.75;8.00;;;;;17.87;65.22;101223.63;4971167;28;45499;-67
2022/10/27 09:18:33;;;;;;;;;9.00;8.00;;;;;17.96;64.92;101224.09;4981158;28;45558;-69
2022/10/27 09:20:59;;;;;;;;;16.80;11.00;;;;;17.70;64.91;101176.41;4990530;28;45398;-66
2022/10/27 09:23:36;;;;;;;;;10.20;9.00;;;;;18.05;64.98;101221.78;4981031;28;45697;-67
2022/10/27 09:26:02;;;;;;;;;10.20;10.20;;;;;18.10;64.95;101232.13;5006999;28;45521;-69
2022/10/27 09:28:33;;;;;;;;;10.00;9.25;;;;;18.11;64.97;101231.03;5006532;28;46998;-66
2022/10/27 09:30:58;;;;;;;;;12.60;8.40;;;;;18.20;64.85;101240.63;4985433;28;45515;-66
2022/10/27 09:33:34;;;;;;;;;10.00;8.00;;;;;18.20;64.55;101237.84;4972845;28;45397;-63
2022/10/27 09:36:04;;;;;;;;;9.80;9.20;;;;;18.32;64.50;101243.34;4972979;28;45477;-67
2022/10/27 09:38:30;;;;;;;;;9.00;7.40;;;;;18.31;64.21;101247.22;4961063;28;47305;-66
2022/10/27 09:40:55;;;;;;;;;8.50;8.50;;;;;18.36;64.47;101241.72;4989944;28;45448;-66
2022/10/27 09:43:21;;;;;;;;;8.00;7.00;;;;;18.21;64.54;101208.13;4990736;28;45469;-63
2022/10/27 09:45:54;;;;;;;;;11.50;9.25;;;;;18.53;63.75;101250.06;4991338;28;45375;-62
2022/10/27 09:48:21;;;;;;;;;9.20;9.20;;;;;18.58;63.67;101237.34;4990904;28;47216;-66
2022/10/27 09:51:18;;;;;;;;;9.20;7.20;;;;;18.63;63.87;101231.88;4990662;28;45775;-61
2022/10/27 09:53:46;;;;;;;;;7.60;6.60;;;;;18.75;62.97;101223.41;4981217;28;45514;-66
2022/10/27 09:56:14;;;;;;;;;10.40;9.40;;;;;18.80;63.25;101210.41;4972164;28;45929;-65
2022/10/27 09:58:48;;;;;;;;;8.00;7.00;;;;;18.87;63.08;101206.63;4971808;28;46557;-61
2022/10/27 10:01:13;;;;;;;;;11.60;6.60;;;;;18.91;62.55;101213.38;4954547;28;45910;-67
2022/10/27 10:03:39;;;;;;;;;14.25;10.25;;;;;18.91;62.66;101200.31;4971108;28;45591;-64
2022/10/27 10:06:06;;;;;;;;;11.00;9.00;;;;;18.95;62.23;101195.06;4970821;28;45612;-67
2022/10/27 10:08:34;;;;;;;;;9.00;6.80;;;;;19.05;62.38;101223.03;4942943;28;46679;-69
2022/10/27 10:11:17;;;;;;;;;8.20;7.00;;;;;19.01;62.60;101218.22;4987614;28;45407;-61
2022/10/27 10:13:54;;;;;;;;;13.20;8.60;;;;;18.81;62.18;101189.88;4975006;28;45744;-66
2022/10/27 10:16:20;;;;;;;;;8.80;7.80;;;;;19.08;62.19;101228.09;4989622;28;45574;-68
2022/10/27 10:18:59;;;;;;;;;6.50;5.00;;;;;19.06;62.62;101233.06;4989849;28;45743;-68
2022/10/27 10:21:25;;;;;;;;;10.80;8.20;;;;;19.14;62.25;101234.56;4972568;28;45468;-68
2022/10/27 10:23:54;;;;;;;;;9.50;7.00;;;;;19.10;62.23;101217.56;4978678;28;45765;-61
2022/10/27 10:26:21;;;;;;;;;8.60;7.60;;;;;19.12;62.02;101211.75;4989284;28;45419;-64
2022/10/27 10:28:49;;;;;;;;;8.40;7.20;;;;;19.30;61.97;101241.16;4956709;28;47304;-66
2022/10/27 10:31:28;;;;;;;;;10.40;7.00;;;;;19.19;62.03;101205.97;5004266;28;45508;-68
2022/10/27 10:34:01;;;;;;;;;18.00;11.20;;;;;19.37;61.66;101222.34;4974273;28;45541;-65
2022/10/27 10:36:28;;;;;;;;;8.40;8.40;;;;;19.50;61.57;101229.47;4957317;28;45433;-70
2022/10/27 10:38:58;;;;;;;;;10.60;7.80;;;;;19.69;61.33;101236.63;4973050;28;45628;-67
2022/10/27 10:41:25;;;;;;;;;12.40;8.80;;;;;19.80;61.09;101238.38;4966109;28;46715;-64
2022/10/27 10:44:12;;;;;;;;;8.80;8.80;;;;;19.81;60.72;101247.59;4989175;28;45504;-66
2022/10/27 10:46:53;;;;;;;;;13.40;11.00;;;;;19.77;60.42;101241.72;4991625;28;45988;-66
2022/10/27 10:49:24;;;;;;;;;8.80;7.40;;;;;19.54;60.32;101192.75;4989444;28;46849;-66
2022/10/27 10:51:56;;;;;;;;;9.80;9.00;;;;;19.16;60.29;101128.59;4973453;28;45348;-63
2022/10/27 10:54:30;;;;;;;;;11.20;10.00;;;;;19.74;60.37;101209.66;4978550;28;45445;-63
2022/10/27 10:56:56;;;;;;;;;13.60;10.00;;;;;19.91;60.26;101228.22;4970485;28;45478;-66
2022/10/27 10:59:31;;;;;;;;;10.50;7.75;;;;;19.86;59.88;101214.22;4971142;28;46064;-63
2022/10/27 11:02:03;;;;;;;;;12.00;10.20;;;;;19.90;60.38;101215.38;4969862;28;45458;-63
2022/10/27 11:04:30;;;;;;;;;13.20;9.80;;;;;19.16;60.03;101115.50;4971422;28;45449;-61
2022/10/27 11:07:04;;;;;;;;;10.80;9.00;;;;;19.85;60.59;101221.72;4988100;28;45386;-62
2022/10/27 11:09:38;;;;;;;;;10.80;8.00;;;;;19.95;60.58;101229.38;4993384;28;45431;-66
2022/10/27 11:12:08;;;;;;;;;8.40;8.20;;;;;20.11;60.17;101237.91;4992891;28;45411;-64
2022/10/27 11:14:33;;;;;;;;;10.00;8.20;;;;;20.44;59.53;101225.63;4993746;28;45469;-68
2022/10/27 11:17:00;;;;;;;;;8.00;8.00;;;;;20.86;58.06;101214.75;4976217;28;45322;-67
2022/10/27 11:19:34;;;;;;;;;8.20;7.00;;;;;21.72;56.65;101186.63;4993748;28;46562;-65
2022/10/27 11:22:02;;;;;;;;;9.20;6.40;;;;;23.48;52.67;101193.06;4977379;28;45345;-67
2022/10/27 11:24:29;;;;;;;;;7.80;7.00;;;;;24.63;49.84;101185.44;4994240;28;45284;-68
2022/10/27 11:27:05;;;;;;;;;12.20;9.00;;;;;27.54;43.14;101186.34;4995553;28;45831;-66
2022/10/27 11:29:39;;;;;;;;;8.40;7.20;;;;;29.70;38.80;101177.97;4978296;28;46587;-67